Time;durP1;ratioP1;P1;durP2;ratioP2;P2;SDS_P1;SDS_P2;PMS_P1;PMS_P2;Temp;Humidity;BMP_temperature;BMP_pressure;BME280_temperature;BME280_humidity;BME280_pressure;Samples;Min_cycle;Max_cycle;Signal;HPM_P1;HPM_P2
2021/12/04 00:02:28;;;;;;;4.18;3.75;;;;;;;3.28;100.00;62334.06;5087012;28;20231;-77
2021/12/04 00:04:56;;;;;;;3.60;3.30;;;;;;;3.24;100.00;62332.47;5084461;28;20201;-77
2021/12/04 00:07:23;;;;;;;4.20;3.90;;;;;;;3.18;100.00;62326.31;5081484;28;20276;-77
2021/12/04 00:09:57;;;;;;;3.22;2.92;;;;;;;3.15;100.00;62323.75;5085370;28;20201;-77
2021/12/04 00:12:24;;;;;;;4.10;3.10;;;;;;;3.24;100.00;62329.97;5085942;28;20220;-78
2021/12/04 00:14:50;;;;;;;3.20;2.90;;;;;;;3.03;100.00;62311.41;5073251;28;20227;-77
2021/12/04 00:17:17;;;;;;;4.00;2.92;;;;;;;3.06;100.00;62317.00;5078009;28;20200;-77
2021/12/04 00:19:45;;;;;;;4.15;3.55;;;;;;;3.10;100.00;62320.59;5085406;28;20228;-77
2021/12/04 00:22:12;;;;;;;3.38;3.17;;;;;;;2.99;100.00;62304.78;5100490;28;20237;-76
2021/12/04 00:24:39;;;;;;;3.72;3.20;;;;;;;3.07;100.00;62312.50;5086390;28;20247;-77
2021/12/04 00:27:06;;;;;;;3.95;3.60;;;;;;;2.96;100.00;62301.69;5086043;28;20212;-77
2021/12/04 00:29:33;;;;;;;3.40;3.10;;;;;;;2.69;100.00;62273.97;5087104;28;20205;-76
2021/12/04 00:32:02;;;;;;;4.43;3.60;;;;;;;2.82;100.00;62286.78;5090173;28;20212;-76
2021/12/04 00:34:32;;;;;;;4.75;3.95;;;;;;;2.74;100.00;62276.59;5092464;28;20217;-76
2021/12/04 00:37:12;;;;;;;3.47;3.22;;;;;;;2.73;100.00;62275.03;5087835;28;20263;-77
2021/12/04 00:50:37;;;;;;;4.30;4.00;;;;;;;3.23;100.00;62331.44;5083376;28;20211;-77
2021/12/04 00:53:05;;;;;;;3.95;3.53;;;;;;;2.99;100.00;62309.28;5086245;28;20224;-77
2021/12/04 00:55:32;;;;;;;4.40;4.00;;;;;;;2.80;100.00;62287.25;5081145;28;20205;-77
2021/12/04 00:57:59;;;;;;;4.75;4.35;;;;;;;2.76;100.00;62283.16;5084913;28;20220;-78
2021/12/04 01:00:26;;;;;;;4.65;4.25;;;;;;;2.77;100.00;62284.69;5085752;28;20293;-76
2021/12/04 01:02:53;;;;;;;4.57;4.18;;;;;;;2.97;100.00;62307.25;5084080;28;20236;-77
2021/12/04 01:05:20;;;;;;;4.65;4.25;;;;;;;3.12;100.00;62320.16;5085014;28;20209;-78
2021/12/04 01:07:46;;;;;;;5.45;4.95;;;;;;;2.90;100.00;62297.53;5098424;28;20220;-77
2021/12/04 01:10:15;;;;;;;4.57;4.18;;;;;;;2.88;100.00;62298.50;5086651;28;20212;-77
2021/12/04 01:12:43;;;;;;;4.18;3.88;;;;;;;3.02;100.00;62312.38;5080936;28;20216;-78
2021/12/04 01:15:10;;;;;;;3.85;3.55;;;;;;;3.14;100.00;62317.69;5085037;28;20382;-77
2021/12/04 01:17:37;;;;;;;4.95;4.55;;;;;;;3.06;100.00;62311.97;5085452;28;20658;-77
2021/12/04 01:20:05;;;;;;;3.42;3.17;;;;;;;3.01;100.00;62306.31;5090271;28;20548;-79
2021/12/04 01:22:33;;;;;;;3.97;3.67;;;;;;;2.74;100.00;62284.13;5076915;28;20232;-77
2021/12/04 01:25:00;;;;;;;4.60;4.20;;;;;;;2.85;100.00;62292.38;5085317;28;20228;-77
2021/12/04 01:27:28;;;;;;;3.65;3.42;;;;;;;3.01;100.00;62306.84;5085067;28;20224;-77
2021/12/04 01:29:55;;;;;;;4.65;3.97;;;;;;;3.10;100.00;62318.09;5082169;28;20204;-78
2021/12/04 01:32:22;;;;;;;3.65;3.40;;;;;;;2.80;100.00;62287.25;5075836;28;20247;-79
2021/12/04 01:34:49;;;;;;;4.22;3.88;;;;;;;2.82;100.00;62292.34;5085786;28;20205;-78
2021/12/04 01:37:15;;;;;;;5.10;4.60;;;;;;;2.93;100.00;62298.09;5085269;28;20217;-78
2021/12/04 01:39:42;;;;;;;5.35;3.90;;;;;;;2.92;100.00;62300.09;5085004;28;20278;-77
2021/12/04 01:42:09;;;;;;;4.43;4.07;;;;;;;2.97;100.00;62302.22;5081936;28;20209;-78
2021/12/04 01:44:37;;;;;;;4.10;3.70;;;;;;;2.92;100.00;62299.59;5083112;28;20207;-77
2021/12/04 01:47:15;;;;;;;5.05;4.55;;;;;;;2.75;100.00;62280.13;5096353;28;20199;-77
2021/12/04 01:49:42;;;;;;;5.97;4.18;;;;;;;2.57;100.00;62264.16;5084993;28;20264;-78
2021/12/04 01:52:09;;;;;;;3.60;3.30;;;;;;;2.38;100.00;62245.13;5079506;28;20297;-76
2021/12/04 01:54:37;;;;;;;3.65;3.35;;;;;;;2.32;100.00;62238.97;5081245;28;20250;-77
2021/12/04 01:57:05;;;;;;;3.97;3.67;;;;;;;2.40;100.00;62243.66;5084690;28;20211;-76
2021/12/04 01:59:32;;;;;;;3.92;3.60;;;;;;;2.36;100.00;62245.59;5085080;28;20240;-76
2021/12/04 02:02:00;;;;;;;4.28;3.97;;;;;;;2.33;100.00;62236.97;5083878;28;20205;-77
2021/12/04 02:04:26;;;;;;;4.45;4.05;;;;;;;2.43;100.00;62249.75;5076797;28;20542;-78
2021/12/04 02:06:53;;;;;;;4.78;3.65;;;;;;;2.36;100.00;62245.59;5082884;28;20246;-78
2021/12/04 02:09:20;;;;;;;3.22;3.03;;;;;;;2.50;100.00;62256.44;5095578;28;20225;-78
2021/12/04 02:11:47;;;;;;;4.25;3.95;;;;;;;2.53;100.00;62257.00;5079275;28;20201;-78
2021/12/04 02:14:14;;;;;;;3.53;3.22;;;;;;;2.50;100.00;62259.47;5080028;28;20255;-78
2021/12/04 02:16:41;;;;;;;4.43;3.08;;;;;;;2.36;100.00;62243.06;5087046;28;20221;-78
2021/12/04 02:19:09;;;;;;;3.67;3.38;;;;;;;2.34;100.00;62238.53;5083837;28;20562;-78
2021/12/04 02:21:37;;;;;;;3.78;3.47;;;;;;;2.23;100.00;62229.22;5084331;28;20204;-77
2021/12/04 02:24:04;;;;;;;3.60;3.30;;;;;;;2.17;100.00;62223.06;5084345;28;20259;-77
2021/12/04 02:26:31;;;;;;;4.22;3.72;;;;;;;2.24;100.00;62230.75;5086122;28;20250;-78
2021/12/04 02:28:58;;;;;;;3.45;3.25;;;;;;;2.29;100.00;62237.91;5083979;28;20229;-77
2021/12/04 02:31:26;;;;;;;3.35;3.15;;;;;;;2.32;100.00;62241.50;5093584;28;20485;-77
2021/12/04 02:33:52;;;;;;;5.05;3.55;;;;;;;2.21;100.00;62229.66;5077568;28;20220;-77
2021/12/04 02:36:19;;;;;;;3.72;3.42;;;;;;;2.08;100.00;62213.81;5094196;28;20203;-77
2021/12/04 02:38:51;;;;;;;4.70;3.35;;;;;;;2.24;100.00;62227.75;5087444;28;20285;-76
2021/12/04 02:41:18;;;;;;;3.42;3.17;;;;;;;2.22;100.00;62225.69;5083336;28;20243;-77
2021/12/04 02:43:45;;;;;;;4.32;4.00;;;;;;;2.33;100.00;62239.47;5082774;28;20523;-76
2021/12/04 02:46:12;;;;;;;5.03;3.88;;;;;;;2.36;100.00;62243.06;5080608;28;20591;-77
2021/12/04 02:48:41;;;;;;;4.47;3.35;;;;;;;2.44;100.00;62250.25;5082520;28;20224;-77
2021/12/04 02:51:08;;;;;;;3.90;3.60;;;;;;;2.50;100.00;62259.47;5069961;28;20224;-77
2021/12/04 02:53:35;;;;;;;3.70;3.40;;;;;;;2.25;100.00;62233.78;5082791;28;20220;-77
2021/12/04 02:56:05;;;;;;;4.25;3.85;;;;;;;2.33;100.00;62240.00;5086133;28;20212;-77
2021/12/04 02:58:32;;;;;;;4.38;3.95;;;;;;;2.18;100.00;62224.06;5092520;28;20240;-78
2021/12/04 03:00:59;;;;;;;6.88;4.10;;;;;;;2.18;100.00;62222.09;5080175;28;20240;-76
2021/12/04 03:03:26;;;;;;;4.70;4.30;;;;;;;2.38;100.00;62246.63;5082249;28;20220;-77
2021/12/04 03:05:53;;;;;;;4.60;4.20;;;;;;;2.34;100.00;62235.50;5096553;28;20209;-77
2021/12/04 03:08:20;;;;;;;5.43;4.93;;;;;;;2.52;100.00;62263.53;5078587;28;20536;-76
2021/12/04 03:10:48;;;;;;;5.07;4.68;;;;;;;2.62;100.00;62271.81;5078129;28;20208;-76
2021/12/04 03:13:18;;;;;;;4.60;4.20;;;;;;;2.47;100.00;62253.88;5082528;28;20225;-77
2021/12/04 03:15:48;;;;;;;6.32;5.72;;;;;;;2.40;100.00;62244.16;5083604;28;20265;-77
2021/12/04 03:18:14;;;;;;;6.38;5.65;;;;;;;2.41;100.00;62250.22;5082148;28;20437;-77
2021/12/04 03:20:44;;;;;;;10.82;9.20;;;;;;;2.56;100.00;62263.13;5074743;28;20561;-78
2021/12/04 03:23:18;;;;;;;12.85;9.65;;;;;;;2.61;100.00;62268.25;5083466;28;20228;-77
2021/12/04 03:25:48;;;;;;;9.18;5.78;;;;;;;2.53;100.00;62262.03;5083207;28;20199;-76
2021/12/04 03:28:18;;;;;;;5.25;4.78;;;;;;;2.70;100.00;62282.00;5083667;28;20256;-75
2021/12/04 03:30:48;;;;;;;6.13;5.53;;;;;;;2.66;100.00;62270.38;5079091;28;20266;-77
2021/12/04 03:41:27;;;;;;;6.95;5.93;;;;;;;2.66;100.00;62272.88;5079802;28;20245;-76
2021/12/04 03:43:55;;;;;;;6.45;5.15;;;;;;;2.71;100.00;62278.03;5082280;28;20217;-77
2021/12/04 03:46:24;;;;;;;5.18;4.68;;;;;;;2.37;100.00;62246.09;5083339;28;20251;-76
2021/12/04 03:48:51;;;;;;;6.13;5.32;;;;;;;2.46;100.00;62257.34;5079924;28;20229;-76
2021/12/04 03:51:19;;;;;;;6.40;5.47;;;;;;;2.57;100.00;62263.63;5077239;28;20267;-76
2021/12/04 03:53:46;;;;;;;6.22;5.30;;;;;;;2.62;100.00;62271.28;5083148;28;20425;-77
2021/12/04 03:56:15;;;;;;;8.80;5.53;;;;;;;2.49;100.00;62255.91;5079322;28;20486;-77
2021/12/04 03:58:42;;;;;;;5.82;5.32;;;;;;;2.45;100.00;62248.78;5082835;28;20228;-77
2021/12/04 04:01:11;;;;;;;7.13;4.53;;;;;;;2.51;100.00;62257.47;5073191;28;20228;-77
2021/12/04 04:03:37;;;;;;;5.43;4.93;;;;;;;2.43;100.00;62249.25;5082475;28;20262;-77
2021/12/04 04:06:04;;;;;;;4.93;4.45;;;;;;;2.35;100.00;62242.06;5089292;28;20514;-78
2021/12/04 04:08:32;;;;;;;4.88;4.47;;;;;;;2.35;100.00;62239.53;5090515;28;20400;-77
2021/12/04 04:10:59;;;;;;;5.60;4.80;;;;;;;2.39;100.00;62245.66;5081274;28;20256;-77
2021/12/04 04:13:26;;;;;;;6.68;4.60;;;;;;;2.22;100.00;62226.19;5080924;28;20228;-77
2021/12/04 04:15:53;;;;;;;5.43;4.82;;;;;;;2.27;100.00;62233.31;5084695;28;20513;-78
2021/12/04 04:18:21;;;;;;;5.65;5.10;;;;;;;2.23;100.00;62227.22;5095862;28;20330;-76
2021/12/04 04:20:48;;;;;;;5.30;4.80;;;;;;;2.25;100.00;62228.75;5079212;28;20229;-75
2021/12/04 04:23:15;;;;;;;4.95;4.55;;;;;;;2.14;100.00;62220.47;5079586;28;20217;-76
2021/12/04 04:25:42;;;;;;;4.88;4.47;;;;;;;2.12;100.00;62220.44;5084863;28;20192;-77
2021/12/04 04:28:09;;;;;;;5.47;3.95;;;;;;;2.12;100.00;62215.41;5086202;28;20228;-76
2021/12/04 04:30:37;;;;;;;4.10;3.80;;;;;;;2.08;100.00;62214.34;5086077;28;20267;-76
2021/12/04 04:33:04;;;;;;;5.30;4.75;;;;;;;2.07;100.00;62212.78;5071490;28;20558;-76
2021/12/04 04:35:33;;;;;;;8.90;4.57;;;;;;;2.09;100.00;62219.84;5082405;28;20205;-78
2021/12/04 04:38:09;;;;;;;5.82;4.72;;;;;;;2.20;100.00;62223.63;5099172;28;20231;-77
2021/12/04 04:59:59;;;;;;;6.28;4.65;;;;;;;2.04;100.00;62207.72;5085813;28;20239;-76
2021/12/04 05:02:41;;;;;;;4.13;3.72;;;;;;;2.00;100.00;62210.63;5085671;28;20253;-77
2021/12/04 05:11:03;;;;;;;4.07;3.78;;;;;;;1.93;100.00;62201.44;5085371;28;20227;-76
2021/12/04 05:13:30;;;;;;;4.50;3.95;;;;;;;1.94;100.00;62199.97;5082945;28;20220;-76
2021/12/04 05:16:01;;;;;;;6.20;4.63;;;;;;;1.96;100.00;62199.50;5074876;28;20212;-77
2021/12/04 05:18:39;;;;;;;4.07;3.78;;;;;;;1.86;100.00;62193.75;5085869;28;20545;-76
2021/12/04 05:21:08;;;;;;;4.53;4.13;;;;;;;1.95;100.00;62202.97;5094894;28;20265;-76
2021/12/04 05:23:40;;;;;;;5.25;4.30;;;;;;;1.85;100.00;62187.69;5098586;28;20229;-77
2021/12/04 05:26:09;;;;;;;4.68;4.28;;;;;;;1.89;100.00;62194.31;5081394;28;20204;-76
2021/12/04 05:28:36;;;;;;;7.95;4.80;;;;;;;1.90;100.00;62195.31;5085182;28;20220;-76
2021/12/04 05:31:07;;;;;;;6.32;5.13;;;;;;;1.84;100.00;62192.19;5084939;28;20201;-78
2021/12/04 05:33:34;;;;;;;7.55;5.50;;;;;;;1.91;100.00;62199.38;5080236;28;20603;-77
2021/12/04 05:36:01;;;;;;;6.47;4.93;;;;;;;1.97;100.00;62205.53;5079663;28;20220;-76
2021/12/04 05:38:27;;;;;;;5.97;5.38;;;;;;;1.92;100.00;62202.41;5070707;28;20533;-77
2021/12/04 05:40:55;;;;;;;8.73;4.88;;;;;;;2.05;100.00;62208.22;5084732;28;20236;-77
2021/12/04 05:43:24;;;;;;;5.40;4.95;;;;;;;2.08;100.00;62218.84;5084880;28;20274;-76
2021/12/04 05:45:56;;;;;;;12.18;6.40;;;;;;;2.07;100.00;62210.28;5078247;28;20505;-76
2021/12/04 05:48:30;;;;;;;6.55;4.90;;;;;;;2.05;100.00;62211.25;5082285;28;20557;-77
2021/12/04 05:51:16;;;;;;;6.18;5.20;;;;;;;2.00;100.00;62208.63;5085045;28;20262;-78
2021/12/04 05:53:56;;;;;;;5.18;4.63;;;;;;;2.00;100.00;62208.13;5084104;28;20267;-77
2021/12/04 05:56:25;;;;;;;5.50;4.80;;;;;;;1.86;100.00;62191.75;5083365;28;20497;-77
2021/12/04 05:58:52;;;;;;;7.80;5.30;;;;;;;1.94;100.00;62201.94;5086030;28;20224;-77
2021/12/04 06:01:20;;;;;;;5.63;4.55;;;;;;;1.84;100.00;62194.19;5080300;28;20233;-78
2021/12/04 06:03:47;;;;;;;6.35;4.85;;;;;;;1.75;100.00;62185.47;5085283;28;20213;-79
2021/12/04 06:06:14;;;;;;;4.65;4.25;;;;;;;1.72;100.00;62174.88;5086560;28;20250;-78
2021/12/04 06:08:41;;;;;;;5.35;4.57;;;;;;;1.74;100.00;62178.91;5100225;28;20220;-78
2021/12/04 06:11:08;;;;;;;6.15;5.10;;;;;;;1.64;100.00;62171.66;5085414;28;20235;-78
2021/12/04 06:13:36;;;;;;;6.68;5.13;;;;;;;1.68;100.00;62173.25;5084472;28;20285;-78
2021/12/04 06:16:03;;;;;;;6.90;5.90;;;;;;;1.71;100.00;62173.81;5084195;28;20216;-78
2021/12/04 06:18:32;;;;;;;6.65;5.80;;;;;;;1.66;100.00;62170.69;5083888;28;20216;-78
2021/12/04 06:23:43;;;;;;;6.00;5.40;;;;;;;1.65;100.00;62170.19;5084862;28;20425;-77
2021/12/04 06:26:10;;;;;;;9.48;6.88;;;;;;;1.71;100.00;62173.81;5083331;28;20211;-78
2021/12/04 06:28:39;;;;;;;8.80;7.38;;;;;;;1.77;100.00;62179.47;5084200;28;20225;-78
2021/12/04 06:31:07;;;;;;;7.00;6.30;;;;;;;1.92;100.00;62200.41;5084540;28;20466;-78
2021/12/04 06:33:34;;;;;;;9.88;7.15;;;;;;;1.90;100.00;62200.88;5083761;28;20232;-77
2021/12/04 06:36:01;;;;;;;7.78;6.45;;;;;;;2.03;100.00;62211.72;5083058;28;20435;-78
2021/12/04 06:38:28;;;;;;;24.08;15.18;;;;;;;2.08;100.00;62211.81;5085295;28;20231;-79
2021/12/04 06:40:55;;;;;;;11.50;8.45;;;;;;;2.09;100.00;62214.84;5084302;28;20259;-78
2021/12/04 06:43:22;;;;;;;7.15;5.88;;;;;;;2.11;100.00;62214.38;5076412;28;20244;-78
2021/12/04 06:45:57;;;;;;;7.63;6.10;;;;;;;2.13;100.00;62221.97;5082714;28;20215;-78
2021/12/04 06:48:27;;;;;;;8.65;5.85;;;;;;;2.16;100.00;62219.50;5099681;28;20231;-78
2021/12/04 06:50:57;;;;;;;14.77;7.15;;;;;;;2.16;100.00;62222.53;5082401;28;20513;-78
2021/12/04 06:53:27;;;;;;;9.60;6.00;;;;;;;2.17;100.00;62221.06;5084462;28;20258;-79
2021/12/04 06:55:56;;;;;;;8.98;6.80;;;;;;;2.14;100.00;62222.50;5081461;28;20200;-78
2021/12/04 06:58:26;;;;;;;7.20;5.70;;;;;;;2.20;100.00;62226.13;5084519;28;20240;-78
2021/12/04 07:00:56;;;;;;;9.50;6.55;;;;;;;2.25;100.00;62231.28;5084367;28;20220;-78
2021/12/04 07:03:23;;;;;;;6.75;5.82;;;;;;;2.36;100.00;62242.56;5082424;28;20216;-78
2021/12/04 07:05:50;;;;;;;7.97;6.30;;;;;;;2.42;100.00;62248.72;5082738;28;20234;-80
2021/12/04 07:08:17;;;;;;;8.05;5.57;;;;;;;2.38;100.00;62244.13;5100110;28;20220;-77
2021/12/04 07:10:44;;;;;;;10.98;7.15;;;;;;;2.42;100.00;62248.22;5085423;28;20203;-78
2021/12/04 07:13:12;;;;;;;8.82;6.95;;;;;;;2.44;100.00;62250.25;5085143;28;20247;-77
2021/12/04 07:15:41;;;;;;;9.98;6.95;;;;;;;2.48;100.00;62252.38;5081560;28;20205;-79
2021/12/04 07:18:09;;;;;;;9.70;6.82;;;;;;;2.40;100.00;62248.69;5084933;28;20228;-78
2021/12/04 07:20:36;;;;;;;7.75;5.93;;;;;;;2.40;100.00;62246.66;5082659;28;20250;-79
2021/12/04 07:23:03;;;;;;;9.85;6.65;;;;;;;2.44;100.00;62247.75;5085318;28;20282;-79
2021/12/04 07:25:30;;;;;;;7.03;5.45;;;;;;;2.37;100.00;62243.59;5079036;28;20378;-77
2021/12/04 07:27:58;;;;;;;7.05;6.00;;;;;;;2.48;100.00;62254.91;5077450;28;20216;-77
2021/12/04 07:30:25;;;;;;;8.27;5.70;;;;;;;2.43;100.00;62247.25;5091766;28;20203;-77
2021/12/04 07:32:52;;;;;;;7.05;5.40;;;;;;;2.49;100.00;62258.44;5084293;28;20244;-77
2021/12/04 07:35:20;;;;;;;8.30;5.40;;;;;;;2.64;100.00;62276.34;5078540;28;20204;-76
2021/12/04 07:37:47;;;;;;;7.80;6.00;;;;;;;2.70;100.00;62282.53;5072513;28;20235;-77
2021/12/04 07:40:15;;;;;;;8.63;6.57;;;;;;;2.74;100.00;62281.09;5084936;28;20506;-77
2021/12/04 07:42:41;;;;;;;9.65;7.30;;;;;;;2.89;100.00;62292.00;5076995;28;20271;-78
2021/12/04 07:45:09;;;;;;;8.60;6.93;;;;;;;2.99;100.00;62304.78;5081292;28;20536;-77
2021/12/04 07:47:36;;;;;;;9.52;6.78;;;;;;;3.04;100.00;62307.41;5083485;28;20270;-77
2021/12/04 07:50:05;;;;;;;7.25;6.50;;;;;;;3.24;100.00;62332.47;5079277;28;20193;-77
2021/12/04 07:52:33;;;;;;;13.27;6.95;;;;;;;3.39;100.00;62350.94;5083180;28;20228;-77
2021/12/04 07:55:00;;;;;;;9.95;7.32;;;;;;;3.62;100.00;62369.03;5082309;28;20193;-77
2021/12/04 07:57:27;;;;;;;7.88;6.85;;;;;;;3.64;100.00;62371.09;5078362;28;20217;-76
2021/12/04 07:59:54;;;;;;;9.10;7.40;;;;;;;3.65;100.00;62376.63;5079241;28;20196;-76
2021/12/04 08:02:21;;;;;;;10.15;7.10;;;;;;;3.82;100.00;62389.09;5086368;28;20266;-76
2021/12/04 08:04:48;;;;;;;8.98;5.93;;;;;;;3.98;100.00;62413.09;5086540;28;20212;-76
2021/12/04 08:07:15;;;;;;;10.35;6.28;;;;;;;3.83;100.00;62393.13;5086475;28;20227;-76
2021/12/04 08:09:43;;;;;;;10.57;6.53;;;;;;;3.63;100.00;62372.56;5083485;28;20207;-77
2021/12/04 08:12:10;;;;;;;13.07;6.85;;;;;;;3.52;100.00;62361.78;5086427;28;20314;-78
2021/12/04 08:14:38;;;;;;;9.10;6.28;;;;;;;3.25;100.00;62334.03;5086116;28;20227;-77
2021/12/04 08:17:05;;;;;;;7.75;6.95;;;;;;;3.21;100.00;62332.41;5087854;28;20204;-78
2021/12/04 08:19:32;;;;;;;8.07;6.28;;;;;;;3.11;100.00;62319.63;5078842;28;20213;-77
2021/12/04 08:21:59;;;;;;;7.28;6.07;;;;;;;3.20;100.00;62328.88;5086152;28;20238;-78
2021/12/04 08:24:26;;;;;;;6.90;6.18;;;;;;;3.07;100.00;62315.00;5083685;28;20379;-77
2021/12/04 08:26:55;;;;;;;9.18;7.63;;;;;;;3.09;100.00;62319.59;5084936;28;20201;-77
2021/12/04 08:29:22;;;;;;;20.63;12.98;;;;;;;3.07;100.00;62315.00;5084860;28;20278;-78
2021/12/04 08:31:50;;;;;;;14.77;7.65;;;;;;;3.32;100.00;62341.22;5083196;28;20211;-78
2021/12/04 08:34:18;;;;;;;8.45;7.38;;;;;;;3.32;100.00;62338.19;5084949;28;20224;-78
2021/12/04 08:36:45;;;;;;;8.30;6.90;;;;;;;3.50;100.00;62364.25;5086048;28;20212;-76
2021/12/04 08:39:12;;;;;;;8.18;6.70;;;;;;;3.57;100.00;62361.38;5082027;28;20553;-77
2021/12/04 08:41:40;;;;;;;9.77;6.68;;;;;;;3.71;100.00;62380.81;5086373;28;20243;-78
2021/12/04 08:44:08;;;;;;;9.30;7.30;;;;;;;3.74;100.00;62381.38;5090043;28;20212;-77
2021/12/04 08:46:37;;;;;;;8.35;6.22;;;;;;;3.86;100.00;62401.28;5089763;28;20239;-77
2021/12/04 08:49:05;;;;;;;8.00;5.82;;;;;;;3.47;100.00;62359.16;5083621;28;20236;-77
2021/12/04 08:51:32;;;;;;;7.03;6.15;;;;;;;3.60;100.00;62374.00;5085892;28;20220;-78
2021/12/04 08:53:59;;;;;;;10.55;6.88;;;;;;;3.96;100.00;62406.00;5086230;28;20466;-78
2021/12/04 08:56:26;;;;;;;10.00;7.18;;;;;;;4.23;100.00;62434.28;5085280;28;20213;-77
2021/12/04 08:58:53;;;;;;;13.75;7.18;;;;;;;4.44;100.00;62455.91;5080803;28;20220;-78
2021/12/04 09:01:25;;;;;;;9.93;6.80;;;;;;;4.17;100.00;62428.13;5099138;28;20259;-77
2021/12/04 09:03:57;;;;;;;8.43;6.70;;;;;;;4.09;100.00;62424.44;5097476;28;20220;-78
2021/12/04 09:06:24;;;;;;;14.05;7.30;;;;;;;4.16;100.00;62426.59;5085951;28;20200;-77
2021/12/04 09:08:52;;;;;;;8.05;6.63;;;;;;;4.28;100.00;62439.44;5072743;28;20262;-76
2021/12/04 09:11:22;;;;;;;8.75;6.53;;;;;;;4.45;100.00;62458.94;5077221;28;20417;-77
2021/12/04 09:13:49;;;;;;;49.58;31.52;;;;;;;4.58;100.00;62474.84;5086124;28;20228;-77
2021/12/04 09:16:18;;;;;;;8.90;7.15;;;;;;;4.18;100.00;62431.66;5082451;28;20236;-78
2021/12/04 09:18:46;;;;;;;10.30;7.53;;;;;;;3.74;100.00;62385.91;5085107;28;20423;-77
2021/12/04 09:21:13;;;;;;;11.65;7.57;;;;;;;3.80;100.00;62387.53;5077609;28;20563;-77
2021/12/04 09:23:48;;;;;;;9.43;7.03;;;;;;;3.79;100.00;62389.03;5085771;28;20228;-78
2021/12/04 09:26:27;;;;;;;12.02;8.20;;;;;;;3.82;100.00;62389.09;5085151;28;20445;-75
2021/12/04 09:29:02;;;;;;;13.23;7.95;;;;;;;4.03;100.00;62413.72;5082830;28;20213;-75
2021/12/04 09:31:41;;;;;;;13.90;9.43;;;;;;;4.15;100.00;62423.03;5080771;28;20207;-76
2021/12/04 09:34:26;;;;;;;10.77;8.55;;;;;;;4.21;100.00;62431.72;5084696;28;20220;-76
2021/12/04 10:02:07;;;;;;;9.18;6.55;;;;;;;3.78;100.00;62390.00;5012002;28;20230;-76
2021/12/04 10:05:06;;;;;;;14.80;9.25;;;;;;;3.85;100.00;62399.75;5009366;28;20401;-75
2021/12/04 10:19:01;;;;;;;12.88;8.68;;;;;;;3.65;100.00;62374.63;5055400;28;20220;-77
2021/12/04 10:21:44;;;;;;;13.35;7.97;;;;;;;3.58;100.00;62369.94;5078418;28;20228;-76
2021/12/04 10:32:38;;;;;;;12.43;9.18;;;;;;;3.40;100.00;62351.97;5086388;28;20224;-77
2021/12/04 10:35:10;;;;;;;12.27;8.80;;;;;;;3.42;100.00;62350.97;5084788;28;20230;-77
2021/12/04 10:37:49;;;;;;;17.88;9.35;;;;;;;3.63;100.00;62372.56;5084111;28;20228;-76
2021/12/04 10:40:19;;;;;;;12.75;8.63;;;;;;;3.73;100.00;62384.88;5082737;28;20242;-77
2021/12/04 10:42:51;;;;;;;11.05;8.38;;;;;;;3.72;100.00;62378.81;5074361;28;20278;-77
2021/12/04 10:45:19;;;;;;;14.50;8.55;;;;;;;3.61;100.00;62370.53;5078813;28;20514;-76
2021/12/04 10:47:53;;;;;;;11.38;7.55;;;;;;;3.95;100.00;62410.03;5084054;28;20208;-77
2021/12/04 10:50:32;;;;;;;11.73;8.98;;;;;;;3.75;100.00;62382.41;5080584;28;20263;-75
2021/12/04 10:53:01;;;;;;;12.20;9.05;;;;;;;3.95;100.00;62408.00;5077613;28;20216;-78
2021/12/04 10:55:34;;;;;;;11.30;8.70;;;;;;;3.67;100.00;62374.19;5082975;28;20231;-77
2021/12/04 11:00:56;;;;;;;14.43;8.95;;;;;;;3.91;100.00;62398.88;5080555;28;20192;-77
2021/12/04 11:03:41;;;;;;;6.63;6.00;;;;;;;3.91;100.00;62401.38;5083666;28;20243;-76
2021/12/04 11:20:53;;;;;;;19.40;11.02;;;;;;;4.23;100.00;62431.78;5080837;28;20231;-77
2021/12/04 11:26:46;;;;;;;17.85;12.00;;;;;;;4.53;100.00;62464.66;5081488;28;20192;-78
2021/12/04 11:38:14;;;;;;;19.30;10.98;;;;;;;5.03;100.00;62516.13;5062938;28;20298;-77
2021/12/04 11:41:09;;;;;;;17.20;11.68;;;;;;;4.91;100.00;62500.72;5076497;28;20231;-76
2021/12/04 11:43:50;;;;;;;14.48;10.25;;;;;;;4.33;100.00;62447.09;5085593;28;20224;-77
2021/12/04 11:46:21;;;;;;;16.33;11.80;;;;;;;4.29;100.00;62440.47;5087914;28;20227;-77
2021/12/04 11:48:48;;;;;;;23.23;13.30;;;;;;;4.52;100.00;62464.13;5087659;28;20227;-76
2021/12/04 11:51:18;;;;;;;20.38;12.20;;;;;;;4.48;100.00;62462.03;5081026;28;20242;-76
2021/12/04 11:53:46;;;;;;;24.05;13.88;;;;;;;4.62;100.00;62468.88;5082163;28;20228;-78
2021/12/04 11:56:21;;;;;;;22.58;13.48;;;;;;;4.84;100.00;62501.63;5086391;28;20223;-77
2021/12/04 11:58:50;;;;;;;23.55;13.20;;;;;;;5.03;100.00;62523.69;5085538;28;20220;-76
2021/12/04 12:01:30;;;;;;;19.73;13.38;;;;;;;4.79;100.00;62488.38;5087623;28;20250;-77
2021/12/04 12:04:01;;;;;;;22.25;13.65;;;;;;;4.60;100.00;62474.91;5081492;28;20217;-78
2021/12/04 12:06:31;;;;;;;23.27;14.38;;;;;;;4.16;100.00;62426.59;5083189;28;20238;-77
2021/12/04 12:09:07;;;;;;;26.75;15.98;;;;;;;4.08;100.00;62418.34;5081530;28;20216;-77
2021/12/04 12:11:34;;;;;;;22.67;15.95;;;;;;;4.13;100.00;62426.00;5085166;28;20203;-78
2021/12/04 12:14:05;;;;;;;22.67;14.95;;;;;;;4.36;100.00;62447.69;5084630;28;20225;-77
2021/12/04 12:16:38;;;;;;;27.25;15.70;;;;;;;4.51;100.00;62465.63;5088105;28;20201;-78
2021/12/04 12:19:08;;;;;;;26.35;16.02;;;;;;;4.44;100.00;62455.38;5087780;28;20228;-78
2021/12/04 12:21:45;;;;;;;26.05;16.05;;;;;;;4.52;100.00;62463.63;5088100;28;20435;-78
2021/12/04 12:24:13;;;;;;;22.42;14.32;;;;;;;4.41;100.00;62450.31;5086930;28;20233;-79
2021/12/04 12:32:43;;;;;;;26.77;16.33;;;;;;;4.55;100.00;62469.75;5087943;28;20535;-77
2021/12/04 12:38:05;;;;;;;21.60;14.75;;;;;;;4.76;100.00;62487.81;5075426;28;20223;-78
2021/12/04 12:40:32;;;;;;;23.38;15.60;;;;;;;4.87;100.00;62494.09;5078164;28;20192;-77
2021/12/04 12:43:11;;;;;;;27.00;15.93;;;;;;;4.94;100.00;62508.88;5087385;28;20286;-77
2021/12/04 12:45:38;;;;;;;25.27;15.65;;;;;;;4.87;100.00;62494.59;5077369;28;20254;-77
2021/12/04 12:48:09;;;;;;;24.83;14.73;;;;;;;4.86;100.00;62501.16;5077361;28;20236;-77
2021/12/04 12:50:39;;;;;;;23.33;14.70;;;;;;;5.01;100.00;62516.06;5082355;28;20201;-77
2021/12/04 12:53:11;;;;;;;32.80;18.10;;;;;;;5.14;100.00;62524.44;5087089;28;20541;-77
2021/12/04 12:55:39;;;;;;;28.38;18.75;;;;;;;5.21;100.00;62534.66;5081323;28;20502;-75
2021/12/04 12:58:16;;;;;;;30.75;16.05;;;;;;;5.23;100.00;62536.22;5086730;28;20470;-77
2021/12/04 13:11:54;;;;;;;28.63;16.45;;;;;;;5.58;100.00;62569.75;5086055;28;20206;-77
2021/12/04 13:14:23;;;;;;;30.75;17.70;;;;;;;5.54;100.00;62566.13;5079043;28;20267;-78
2021/12/04 13:16:52;;;;;;;35.33;16.98;;;;;;;5.59;100.00;62573.81;5086332;28;20254;-76
2021/12/04 13:19:23;;;;;;;28.02;16.77;;;;;;;5.49;100.00;62555.41;5086473;28;20247;-76
2021/12/04 13:21:52;;;;;;;26.58;16.10;;;;;;;5.38;100.00;62554.72;5089290;28;20223;-76
2021/12/04 13:24:24;;;;;;;33.67;17.92;;;;;;;5.16;100.00;62532.03;5089791;28;20220;-77
2021/12/04 13:26:53;;;;;;;34.72;19.77;;;;;;;5.27;100.00;62537.81;5086086;28;20193;-76
2021/12/04 13:29:22;;;;;;;30.63;18.35;;;;;;;5.28;100.00;62541.88;5085928;28;20563;-76
2021/12/04 13:31:54;;;;;;;29.65;16.88;;;;;;;5.33;100.00;62547.03;5082394;28;20200;-76
2021/12/04 13:34:27;;;;;;;29.33;18.33;;;;;;;5.34;100.00;62547.53;5084056;28;20455;-77
2021/12/04 13:36:54;;;;;;;49.20;26.95;;;;;;;5.46;100.00;62562.44;5085665;28;20517;-76
2021/12/04 13:39:22;;;;;;;30.88;17.15;;;;;;;5.47;100.00;62563.47;5084992;28;20224;-76
2021/12/04 13:41:51;;;;;;;30.73;16.85;;;;;;;5.48;100.00;62564.50;5069723;28;20243;-77
2021/12/04 13:44:20;;;;;;;26.85;15.20;;;;;;;5.46;100.00;62557.38;5079019;28;20534;-77
2021/12/04 13:46:49;;;;;;;31.95;18.02;;;;;;;5.24;100.00;62537.25;5084752;28;20223;-76
2021/12/04 13:49:19;;;;;;;27.17;16.65;;;;;;;5.38;100.00;62549.66;5085053;28;20621;-77
2021/12/04 13:51:54;;;;;;;25.13;15.65;;;;;;;5.39;100.00;62555.22;5083021;28;20208;-77
2021/12/04 13:54:21;;;;;;;25.30;16.00;;;;;;;5.23;100.00;62534.19;5091673;28;20224;-77
2021/12/04 13:56:48;;;;;;;37.63;20.60;;;;;;;4.98;100.00;62511.00;5085185;28;20200;-77
2021/12/04 13:59:15;;;;;;;26.05;16.30;;;;;;;4.56;100.00;62465.75;5099175;28;20228;-77
2021/12/04 14:01:44;;;;;;;33.13;17.27;;;;;;;4.45;100.00;62456.44;5076710;28;20200;-77